Time;durP1;ratioP1;P1;durP2;ratioP2;P2;SDS_P1;SDS_P2;PMS_P1;PMS_P2;Temp;Humidity;BMP_temperature;BMP_pressure;BME280_temperature;BME280_humidity;BME280_pressure;Samples;Min_cycle;Max_cycle;Signal;HPM_P1;HPM_P2
2022/11/20 00:01:27;;;;;;;13.38;3.53;;;;;;;6.75;100.00;99748.97;4931452;29;20062;-45
2022/11/20 00:03:55;;;;;;;11.23;3.00;;;;;;;6.73;100.00;99754.03;4931626;29;20059;-43
2022/11/20 00:06:23;;;;;;;15.73;3.30;;;;;;;6.71;100.00;99750.03;4931849;29;20052;-44
2022/11/20 00:08:50;;;;;;;15.30;3.35;;;;;;;6.69;100.00;99758.63;4931273;29;20490;-43
2022/11/20 00:11:20;;;;;;;11.48;4.22;;;;;;;6.67;100.00;99755.41;4929469;29;20048;-45
2022/11/20 00:13:50;;;;;;;15.02;4.18;;;;;;;6.68;100.00;99768.00;4931160;29;20142;-45
2022/11/20 00:16:21;;;;;;;13.50;3.47;;;;;;;6.67;100.00;99763.66;4901924;29;20067;-43
2022/11/20 00:18:48;;;;;;;12.18;3.33;;;;;;;6.66;100.00;99764.00;4931589;29;20537;-43
2022/11/20 00:21:25;;;;;;;13.20;3.78;;;;;;;6.64;100.00;99766.31;4931505;29;20510;-44
2022/11/20 00:23:55;;;;;;;9.55;3.22;;;;;;;6.62;100.00;99774.06;4914508;29;20082;-45
2022/11/20 00:26:24;;;;;;;18.45;4.60;;;;;;;6.59;100.00;99778.31;4929731;29;20066;-44
2022/11/20 00:28:53;;;;;;;12.95;3.78;;;;;;;6.56;100.00;99770.75;4931286;29;20056;-50
2022/11/20 00:31:20;;;;;;;11.82;3.90;;;;;;;6.53;100.00;99776.94;4931149;29;20514;-45
2022/11/20 00:33:47;;;;;;;13.30;4.05;;;;;;;6.51;100.00;99773.72;4931344;29;20062;-43
2022/11/20 00:36:19;;;;;;;16.05;4.60;;;;;;;6.49;100.00;99778.75;4931635;29;20056;-45
2022/11/20 00:38:51;;;;;;;12.48;3.38;;;;;;;6.45;100.00;99783.34;4941516;29;20754;-48
2022/11/20 00:41:18;;;;;;;19.40;4.05;;;;;;;6.45;100.00;99796.28;4929867;29;20071;-43
2022/11/20 00:43:45;;;;;;;12.73;5.25;;;;;;;6.42;100.00;99780.47;4932123;29;20155;-43
2022/11/20 00:46:16;;;;;;;11.85;3.95;;;;;;;6.40;100.00;99786.31;4937782;29;20055;-45
2022/11/20 00:48:44;;;;;;;19.52;3.70;;;;;;;6.37;100.00;99788.94;4935067;29;20137;-43
2022/11/20 00:51:13;;;;;;;17.08;3.70;;;;;;;6.35;100.00;99786.53;4931044;29;20502;-43
2022/11/20 00:53:40;;;;;;;13.65;3.53;;;;;;;6.35;100.00;99786.53;4931393;29;20059;-45
2022/11/20 00:56:10;;;;;;;16.48;4.53;;;;;;;6.33;100.00;99791.56;4930205;29;20074;-46
2022/11/20 00:58:39;;;;;;;15.10;4.15;;;;;;;6.30;100.00;99800.47;4931095;29;20082;-43
2022/11/20 01:01:11;;;;;;;19.17;3.78;;;;;;;6.28;100.00;99802.75;4930810;29;20050;-43
2022/11/20 01:03:41;;;;;;;15.43;3.60;;;;;;;6.26;100.00;99805.06;4928979;29;20048;-46
2022/11/20 01:06:34;;;;;;;18.20;3.50;;;;;;;6.25;100.00;99799.91;4930902;29;20074;-43
2022/11/20 01:09:13;;;;;;;14.23;3.92;;;;;;;6.23;100.00;99800.22;4933867;29;20134;-43
2022/11/20 01:11:43;;;;;;;14.73;3.45;;;;;;;6.22;100.00;99803.34;4929055;29;20099;-43
2022/11/20 01:14:15;;;;;;;23.27;4.15;;;;;;;6.19;100.00;99804.81;4930474;29;20059;-44
2022/11/20 01:16:43;;;;;;;;;;;;;;;6.16;100.00;99800.00;4931193;29;20044;-43
2022/11/20 01:19:13;;;;;;;19.08;5.13;;;;;;;6.14;100.00;99805.81;4930297;29;20274;-44
2022/11/20 01:21:45;;;;;;;15.80;3.85;;;;;;;6.12;100.00;99799.84;4913919;29;20573;-49
2022/11/20 01:24:14;;;;;;;18.33;5.30;;;;;;;6.10;100.00;99799.41;4930714;29;20056;-44
2022/11/20 01:26:43;;;;;;;16.27;3.63;;;;;;;6.09;100.00;99806.03;4913693;29;20501;-44
2022/11/20 01:29:15;;;;;;;21.48;5.28;;;;;;;6.08;100.00;99798.13;4930273;29;20131;-43
2022/11/20 01:31:42;;;;;;;21.77;4.80;;;;;;;6.09;100.00;99797.78;4917181;29;20040;-45
2022/11/20 01:34:12;;;;;;;19.08;4.47;;;;;;;6.09;100.00;99802.47;4930572;29;20052;-43
2022/11/20 01:36:39;;;;;;;15.23;3.90;;;;;;;6.08;100.00;99803.63;4910971;29;20680;-44
2022/11/20 01:39:12;;;;;;;20.52;3.85;;;;;;;6.06;100.00;99800.41;4929902;29;20051;-46
2022/11/20 01:45:22;;;;;;;22.63;4.15;;;;;;;6.01;100.00;99803.38;4927473;29;20034;-49
2022/11/20 01:47:50;;;;;;;21.48;4.32;;;;;;;6.00;100.00;99810.81;4907218;29;20058;-43
2022/11/20 01:50:24;;;;;;;19.85;4.13;;;;;;;6.01;100.00;99811.63;4903826;29;20059;-46
2022/11/20 01:52:59;;;;;;;28.48;3.63;;;;;;;6.00;100.00;99812.75;4917218;29;20058;-45
2022/11/20 01:55:31;;;;;;;23.10;4.93;;;;;;;5.99;100.00;99822.13;4927904;29;20150;-43
2022/11/20 01:57:59;;;;;;;27.70;5.40;;;;;;;5.98;100.00;99824.06;4929103;29;20059;-45
2022/11/20 02:00:26;;;;;;;17.33;3.50;;;;;;;5.98;100.00;99818.56;4928167;29;20091;-46
2022/11/20 02:03:05;;;;;;;16.08;5.28;;;;;;;5.98;100.00;99831.53;4928677;29;20176;-44
2022/11/20 02:05:44;;;;;;;20.15;5.00;;;;;;;5.98;100.00;99837.03;4932368;29;20070;-46
2022/11/20 02:08:12;;;;;;;18.52;4.40;;;;;;;5.99;100.00;99827.63;4928150;29;20043;-43
2022/11/20 02:10:39;;;;;;;24.85;4.32;;;;;;;5.96;100.00;99823.59;4928444;29;20086;-46
2022/11/20 02:15:53;;;;;;;27.83;5.53;;;;;;;5.96;100.00;99814.56;4926449;29;20062;-46
2022/11/20 02:18:21;;;;;;;22.58;4.35;;;;;;;5.96;100.00;99817.31;4929799;29;20142;-46
2022/11/20 02:20:58;;;;;;;18.77;4.57;;;;;;;5.97;100.00;99824.41;4926901;29;20130;-43
2022/11/20 02:23:58;;;;;;;22.02;3.90;;;;;;;5.98;100.00;99837.03;4927432;29;20220;-44
2022/11/20 02:26:26;;;;;;;20.83;4.18;;;;;;;5.97;100.00;99825.22;4921228;29;20048;-44
2022/11/20 02:28:54;;;;;;;32.28;6.93;;;;;;;5.98;100.00;99831.53;4929519;29;20065;-43
2022/11/20 02:31:21;;;;;;;23.20;4.45;;;;;;;5.96;100.00;99825.53;4926853;29;20044;-46
2022/11/20 02:33:54;;;;;;;28.38;4.18;;;;;;;5.95;100.00;99833.00;4927645;29;20403;-43
2022/11/20 02:36:21;;;;;;;23.58;4.60;;;;;;;5.94;100.00;99836.88;4926289;29;20398;-44
2022/11/20 02:38:49;;;;;;;22.42;4.35;;;;;;;5.98;100.00;99845.25;4928359;29;20061;-43
2022/11/20 02:41:16;;;;;;;25.20;6.20;;;;;;;6.01;100.00;99841.84;4928239;29;20059;-43
2022/11/20 02:43:43;;;;;;;30.13;5.15;;;;;;;6.07;100.00;99840.47;4927467;29;20044;-45
2022/11/20 02:46:10;;;;;;;25.98;4.22;;;;;;;6.12;100.00;99841.06;4926150;29;20466;-43
2022/11/20 02:48:36;;;;;;;25.30;4.43;;;;;;;6.15;100.00;99831.34;4928669;29;20044;-44
2022/11/20 02:51:03;;;;;;;26.05;4.88;;;;;;;6.16;100.00;99827.47;4927053;29;20070;-46
2022/11/20 02:53:30;;;;;;;26.05;5.78;;;;;;;6.16;100.00;99826.66;4930862;29;20044;-45
2022/11/20 02:55:57;;;;;;;27.35;6.18;;;;;;;6.14;100.00;99819.56;4933861;29;20075;-45
2022/11/20 02:58:24;;;;;;;20.80;3.80;;;;;;;6.11;100.00;99816.69;4928479;29;20051;-44
2022/11/20 03:00:52;;;;;;;14.00;4.75;;;;;;;6.05;100.00;99812.53;4962372;23;20095;-44
2022/11/20 03:03:19;;;;;;;20.88;4.30;;;;;;;6.00;100.00;99821.00;4929049;29;20580;-45
2022/11/20 03:05:45;;;;;;;16.35;4.65;;;;;;;5.96;100.00;99833.78;4929034;29;20515;-43
2022/11/20 03:08:12;;;;;;;23.90;5.70;;;;;;;5.92;100.00;99832.88;4929507;29;20048;-47
2022/11/20 03:10:39;;;;;;;22.17;4.05;;;;;;;5.86;100.00;99834.19;4928713;29;20051;-44
2022/11/20 03:13:07;;;;;;;16.35;3.92;;;;;;;5.81;100.00;99826.13;4929167;29;20042;-44
2022/11/20 03:15:36;;;;;;;21.75;4.85;;;;;;;5.74;100.00;99823.13;4929066;29;20135;-43
2022/11/20 03:18:03;;;;;;;19.80;4.22;;;;;;;5.69;100.00;99826.91;4929638;29;20055;-44
2022/11/20 03:20:32;;;;;;;14.45;3.95;;;;;;;5.67;100.00;99831.91;4928065;29;20490;-45
2022/11/20 03:22:59;;;;;;;22.08;4.43;;;;;;;5.63;100.00;99819.19;4929265;29;20055;-47
2022/11/20 03:25:26;;;;;;;17.75;3.13;;;;;;;5.58;100.00;99816.63;4928998;29;20052;-44
2022/11/20 03:27:54;;;;;;;16.17;3.55;;;;;;;5.54;100.00;99821.97;4928905;29;20094;-44
2022/11/20 03:30:21;;;;;;;15.82;3.15;;;;;;;5.51;100.00;99817.16;4929291;29;20040;-44
2022/11/20 03:32:55;;;;;;;15.15;3.38;;;;;;;5.47;100.00;99811.53;4928090;29;20078;-44
2022/11/20 03:35:22;;;;;;;17.60;3.72;;;;;;;5.45;100.00;99802.81;4931409;29;20062;-43
2022/11/20 03:37:49;;;;;;;18.25;4.30;;;;;;;5.40;100.00;99794.78;4930944;29;20058;-44
2022/11/20 03:40:16;;;;;;;22.88;5.40;;;;;;;5.38;100.00;99801.75;4930774;29;20044;-44
2022/11/20 03:42:45;;;;;;;14.23;3.53;;;;;;;5.32;100.00;99798.41;4930940;29;20490;-44
2022/11/20 03:45:16;;;;;;;18.00;3.50;;;;;;;5.31;100.00;99796.00;4930491;29;20421;-44
2022/11/20 03:47:44;;;;;;;23.80;3.63;;;;;;;5.27;100.00;99792.31;4928489;29;20055;-44
2022/11/20 03:50:13;;;;;;;15.38;3.15;;;;;;;5.26;100.00;99779.72;4913931;29;20059;-46
2022/11/20 03:52:41;;;;;;;17.58;3.33;;;;;;;5.23;100.00;99788.63;4896432;29;21094;-45
2022/11/20 03:55:08;;;;;;;17.42;3.17;;;;;;;5.20;100.00;99790.09;4896373;29;20050;-45
2022/11/20 03:57:35;;;;;;;22.48;7.03;;;;;;;5.17;100.00;99801.72;4898435;29;20051;-47
2022/11/20 04:00:03;;;;;;;16.10;3.15;;;;;;;5.15;100.00;99797.72;4897252;29;20058;-48
2022/11/20 04:02:30;;;;;;;9.85;2.85;;;;;;;5.14;100.00;99805.13;4897485;29;20066;-47
2022/11/20 04:04:57;;;;;;;15.65;3.03;;;;;;;5.14;100.00;99796.09;4881726;29;20051;-46
2022/11/20 04:07:24;;;;;;;15.95;2.80;;;;;;;5.13;100.00;99806.28;4897094;29;21651;-44
2022/11/20 04:09:51;;;;;;;12.93;2.45;;;;;;;5.12;100.00;99810.16;4897397;29;20054;-48
2022/11/20 04:12:17;;;;;;;7.55;3.42;;;;;;;5.12;99.99;99801.91;4880965;29;20133;-46
2022/11/20 04:14:44;;;;;;;13.43;1.70;;;;;;;5.12;99.99;99796.44;4895843;29;20060;-49
2022/11/20 04:17:11;;;;;;;17.38;3.08;;;;;;;5.13;99.76;99800.00;4895802;29;20115;-49
2022/11/20 04:19:38;;;;;;;18.92;3.03;;;;;;;5.15;100.00;99808.69;4896515;29;20048;-48
2022/11/20 04:22:05;;;;;;;12.02;2.60;;;;;;;5.16;99.78;99794.66;4896930;29;21781;-44
2022/11/20 04:24:31;;;;;;;13.55;2.85;;;;;;;5.17;100.00;99796.25;4896328;29;20380;-46
2022/11/20 04:26:58;;;;;;;13.60;2.55;;;;;;;5.16;99.67;99805.63;4896929;29;21288;-44
2022/11/20 04:29:25;;;;;;;20.58;2.33;;;;;;;5.17;99.76;99811.88;4897405;29;20048;-48
2022/11/20 04:31:51;;;;;;;11.10;2.60;;;;;;;5.16;99.50;99827.56;4896652;29;20052;-45
2022/11/20 04:34:18;;;;;;;11.27;3.40;;;;;;;5.18;99.75;99824.47;4895793;29;20050;-46
2022/11/20 04:36:45;;;;;;;12.23;2.28;;;;;;;5.18;99.59;99829.97;4897353;29;20186;-48
2022/11/20 04:39:14;;;;;;;13.93;2.85;;;;;;;5.20;99.56;99817.53;4897211;29;20059;-48
2022/11/20 04:41:44;;;;;;;15.30;2.55;;;;;;;5.22;99.46;99830.91;4894519;29;20468;-47
2022/11/20 04:44:11;;;;;;;7.93;2.72;;;;;;;5.22;99.41;99836.38;4897381;29;20048;-46
2022/11/20 04:46:41;;;;;;;10.98;2.33;;;;;;;5.23;99.54;99830.59;4894144;29;20044;-48
2022/11/20 04:49:10;;;;;;;15.70;2.42;;;;;;;5.23;99.31;99833.34;4895715;29;20043;-46
2022/11/20 04:51:37;;;;;;;11.15;2.65;;;;;;;5.23;99.23;99838.81;4896003;29;20047;-47
2022/11/20 04:54:04;;;;;;;26.27;4.15;;;;;;;5.24;99.40;99823.94;4896292;29;20731;-51
2022/11/20 04:56:31;;;;;;;17.60;3.92;;;;;;;5.26;99.24;99815.41;4895576;29;20055;-45
2022/11/20 04:59:01;;;;;;;23.30;3.47;;;;;;;5.25;99.00;99833.00;4895662;29;20674;-45
2022/11/20 05:01:28;;;;;;;19.90;4.95;;;;;;;5.26;98.99;99831.88;4895020;29;20043;-45
2022/11/20 05:03:55;;;;;;;26.42;4.13;;;;;;;5.26;99.23;99838.16;4895553;29;20052;-48
2022/11/20 05:06:22;;;;;;;20.63;3.40;;;;;;;5.27;99.09;99828.00;4896503;29;20805;-45
2022/11/20 05:08:49;;;;;;;27.75;4.53;;;;;;;5.29;99.08;99831.22;4896242;29;20043;-46
2022/11/20 05:11:19;;;;;;;23.05;4.95;;;;;;;5.31;99.11;99835.22;4897511;29;20062;-46
2022/11/20 05:13:47;;;;;;;16.15;3.03;;;;;;;5.31;98.82;99829.72;4896450;29;20055;-46
2022/11/20 05:16:20;;;;;;;17.73;3.25;;;;;;;5.30;98.98;99838.28;4896383;29;20048;-45
2022/11/20 05:18:47;;;;;;;25.55;4.15;;;;;;;5.30;98.80;99843.78;4897218;29;20044;-45
2022/11/20 05:21:14;;;;;;;22.55;4.03;;;;;;;5.28;98.81;99852.34;4896427;29;20525;-45
2022/11/20 05:23:42;;;;;;;10.52;2.53;;;;;;;5.28;98.89;99843.31;4896700;29;20055;-46
2022/11/20 05:26:21;;;;;;;11.23;3.47;;;;;;;5.26;98.92;99843.66;4897200;29;20051;-47
2022/11/20 05:28:49;;;;;;;21.60;3.72;;;;;;;5.28;99.06;99852.34;4897054;29;20047;-46
2022/11/20 05:31:21;;;;;;;18.02;3.33;;;;;;;5.27;98.59;99853.47;4897072;29;20194;-47
2022/11/20 05:33:54;;;;;;;13.73;3.03;;;;;;;5.27;98.81;99853.47;4897135;29;20058;-44
2022/11/20 05:36:21;;;;;;;26.00;3.70;;;;;;;5.27;98.92;99845.25;4895371;29;20074;-48
2022/11/20 05:38:48;;;;;;;21.67;4.05;;;;;;;5.26;98.65;99851.88;4879967;29;20047;-46
2022/11/20 05:41:19;;;;;;;14.65;2.55;;;;;;;5.24;98.47;99834.91;4895399;29;20519;-45
2022/11/20 05:43:47;;;;;;;19.90;4.72;;;;;;;5.24;98.57;99834.91;4885284;29;20175;-45
2022/11/20 05:46:16;;;;;;;15.80;2.75;;;;;;;5.22;98.53;99826.22;4895399;29;20048;-44
2022/11/20 05:48:46;;;;;;;15.68;2.92;;;;;;;5.23;98.66;99838.00;4895944;29;21172;-45
2022/11/20 05:51:17;;;;;;;22.05;3.38;;;;;;;5.21;98.45;99834.81;4894943;29;21288;-47
2022/11/20 05:53:44;;;;;;;13.88;2.70;;;;;;;5.21;98.37;99840.28;4895667;29;20075;-47
2022/11/20 05:56:19;;;;;;;15.48;3.67;;;;;;;5.19;98.14;99832.38;4894568;29;20052;-47
2022/11/20 05:58:46;;;;;;;8.00;2.33;;;;;;;5.19;97.96;99815.91;4894771;29;20048;-48
2022/11/20 06:01:15;;;;;;;12.00;2.65;;;;;;;5.16;98.04;99833.06;4892759;29;20142;-49
2022/11/20 06:03:45;;;;;;;14.90;3.13;;;;;;;5.16;97.81;99832.25;4892932;29;21324;-45
2022/11/20 06:06:17;;;;;;;16.65;2.08;;;;;;;5.16;98.06;99821.28;4894117;29;20216;-47
2022/11/20 06:08:44;;;;;;;9.48;2.13;;;;;;;5.13;98.01;99828.22;4877717;29;20051;-46
2022/11/20 06:11:13;;;;;;;7.65;2.75;;;;;;;5.12;97.99;99815.63;4896275;29;20225;-47
2022/11/20 06:13:40;;;;;;;16.88;3.22;;;;;;;5.13;97.71;99810.97;4896123;29;21727;-44
2022/11/20 06:16:09;;;;;;;9.88;2.22;;;;;;;5.14;97.67;99812.56;4896693;29;20079;-47
2022/11/20 06:18:36;;;;;;;17.08;3.70;;;;;;;5.14;97.65;99807.88;4885924;29;20074;-48
2022/11/20 06:21:06;;;;;;;11.13;2.08;;;;;;;5.14;97.91;99807.06;4883218;29;20058;-46
2022/11/20 06:23:34;;;;;;;12.23;2.55;;;;;;;5.14;97.73;99807.88;4893351;29;20056;-47
2022/11/20 06:26:03;;;;;;;8.20;1.98;;;;;;;5.15;97.46;99787.53;4895387;29;20052;-46
2022/11/20 06:28:31;;;;;;;6.35;2.00;;;;;;;5.15;97.84;99792.22;4893475;29;20118;-48
2022/11/20 06:30:58;;;;;;;15.50;1.88;;;;;;;5.14;97.23;99788.66;4893398;29;20417;-45
2022/11/20 06:33:25;;;;;;;14.32;3.03;;;;;;;5.14;97.41;99796.09;4895141;29;20584;-44
2022/11/20 06:35:52;;;;;;;10.75;2.30;;;;;;;5.11;97.31;99794.81;4895030;29;20461;-49
2022/11/20 06:38:27;;;;;;;17.83;2.60;;;;;;;5.09;97.35;99777.88;4894670;29;20055;-45
2022/11/20 06:40:55;;;;;;;9.00;1.85;;;;;;;5.09;97.36;99766.91;4894385;29;20048;-47
2022/11/20 06:43:23;;;;;;;14.00;2.35;;;;;;;5.08;97.41;99784.53;4893486;29;20052;-45
2022/11/20 06:45:57;;;;;;;12.43;2.50;;;;;;;5.08;97.03;99780.97;4893675;29;20433;-46
2022/11/20 06:48:28;;;;;;;11.90;1.63;;;;;;;5.07;96.95;99771.13;4893918;29;20062;-46
2022/11/20 06:50:56;;;;;;;11.75;1.52;;;;;;;5.06;97.14;99767.56;4897370;29;20055;-49
2022/11/20 06:53:23;;;;;;;9.27;2.00;;;;;;;5.05;97.06;99782.44;4895712;29;20056;-46
2022/11/20 06:55:51;;;;;;;22.55;4.72;;;;;;;5.07;97.10;99791.16;4896954;29;21279;-45
2022/11/20 06:58:18;;;;;;;14.07;1.83;;;;;;;5.06;96.90;99781.28;4928351;29;20082;-44
2022/11/20 07:00:45;;;;;;;21.50;2.63;;;;;;;5.06;97.08;99778.56;4929341;29;20048;-44
2022/11/20 07:03:12;;;;;;;18.02;3.75;;;;;;;5.06;96.85;99789.53;4929479;29;20056;-45
2022/11/20 07:05:39;;;;;;;11.73;1.73;;;;;;;5.06;97.13;99784.03;4929871;29;20047;-44
2022/11/20 07:08:06;;;;;;;16.98;2.80;;;;;;;5.05;96.87;99776.16;4930304;29;20416;-43
2022/11/20 07:10:33;;;;;;;11.27;2.15;;;;;;;5.04;96.63;99778.09;4932987;29;20043;-46
2022/11/20 07:13:00;;;;;;;10.02;2.40;;;;;;;5.04;96.64;99786.31;4933194;29;20079;-44
2022/11/20 07:15:27;;;;;;;15.55;2.30;;;;;;;5.04;96.47;99778.09;4933177;29;20139;-44
2022/11/20 07:17:54;;;;;;;11.18;3.75;;;;;;;5.04;96.51;99777.28;4932970;29;20150;-44
2022/11/20 07:20:21;;;;;;;11.55;2.33;;;;;;;5.03;96.63;99768.25;4932219;29;20130;-45
2022/11/20 07:22:56;;;;;;;9.05;1.90;;;;;;;5.01;96.22;99773.25;4933203;29;20130;-44
2022/11/20 07:25:24;;;;;;;12.70;1.83;;;;;;;5.03;96.29;99767.47;4928863;29;20051;-48
2022/11/20 07:27:51;;;;;;;9.00;2.05;;;;;;;5.03;96.18;99772.94;4929330;29;20055;-45
2022/11/20 07:30:18;;;;;;;5.07;1.50;;;;;;;5.03;96.37;99761.97;4909143;29;20043;-45
2022/11/20 07:32:52;;;;;;;14.18;2.13;;;;;;;5.01;96.30;99770.50;4940623;29;20098;-45
2022/11/20 07:35:19;;;;;;;10.55;1.92;;;;;;;5.02;96.10;99772.13;4932377;29;20093;-46
2022/11/20 07:37:48;;;;;;;13.50;2.40;;;;;;;5.01;96.16;99770.50;4928939;29;20063;-44
2022/11/20 07:40:16;;;;;;;8.63;2.97;;;;;;;5.03;95.93;99773.72;4931215;29;20167;-44
2022/11/20 07:42:51;;;;;;;14.27;2.53;;;;;;;5.03;96.20;99775.69;4934069;29;20454;-45
2022/11/20 07:45:19;;;;;;;12.68;1.88;;;;;;;5.05;95.96;99779.72;4931992;29;20559;-45
2022/11/20 07:47:45;;;;;;;13.00;2.95;;;;;;;5.07;95.78;99774.69;4933034;29;20051;-47
2022/11/20 07:50:13;;;;;;;10.00;2.28;;;;;;;5.09;95.84;99779.81;4916103;29;20146;-45
2022/11/20 07:52:40;;;;;;;13.75;3.22;;;;;;;5.10;95.88;99776.78;4932830;29;20052;-49
2022/11/20 07:55:08;;;;;;;19.77;4.20;;;;;;;5.13;95.78;99761.59;4915947;29;20055;-45
2022/11/20 07:57:35;;;;;;;9.50;2.15;;;;;;;5.15;96.00;99764.78;4931110;29;20059;-44
2022/11/20 08:00:04;;;;;;;14.90;2.60;;;;;;;5.18;95.74;99758.63;4933722;29;20451;-45
2022/11/20 08:02:31;;;;;;;18.80;3.65;;;;;;;5.22;95.63;99756.81;4931330;29;20530;-45
2022/11/20 08:04:57;;;;;;;18.50;4.03;;;;;;;5.25;95.35;99767.94;4933297;29;20486;-46
2022/11/20 08:07:24;;;;;;;10.27;2.63;;;;;;;5.28;95.58;99772.78;4932170;29;20464;-45
2022/11/20 08:09:51;;;;;;;14.52;3.42;;;;;;;5.31;95.32;99763.88;4933476;29;20040;-49
2022/11/20 08:15:05;;;;;;;22.70;3.80;;;;;;;5.40;95.05;99748.13;4932893;29;20048;-45
2022/11/20 08:17:38;;;;;;;10.50;3.42;;;;;;;5.46;94.86;99755.03;4929239;29;20442;-46
2022/11/20 08:20:05;;;;;;;17.08;3.55;;;;;;;5.49;95.10;99759.84;4931066;29;20945;-45
2022/11/20 08:22:32;;;;;;;15.52;3.13;;;;;;;5.55;94.98;99752.22;4915246;29;20043;-45
2022/11/20 08:24:58;;;;;;;17.35;3.55;;;;;;;5.60;94.84;99756.69;4914817;29;20412;-45
2022/11/20 08:27:25;;;;;;;18.15;2.90;;;;;;;5.60;94.76;99765.75;4931044;29;20058;-46
2022/11/20 08:29:53;;;;;;;13.68;2.70;;;;;;;5.61;94.57;99772.84;4932087;29;20043;-45
2022/11/20 08:32:19;;;;;;;18.70;4.90;;;;;;;5.63;94.52;99759.59;4930656;29;20043;-46
2022/11/20 08:34:46;;;;;;;22.25;3.75;;;;;;;5.65;94.72;99759.22;4932572;29;20039;-48
2022/11/20 08:37:13;;;;;;;14.90;2.72;;;;;;;5.69;94.68;99760.19;4932842;29;20051;-45
2022/11/20 08:39:40;;;;;;;14.50;3.40;;;;;;;5.72;94.38;99770.50;4934213;29;20063;-47
2022/11/20 08:42:08;;;;;;;18.15;3.03;;;;;;;5.76;94.33;99779.66;4931401;29;20396;-45
2022/11/20 08:44:34;;;;;;;10.38;2.20;;;;;;;5.80;94.15;99775.88;4928208;29;20058;-53
2022/11/20 08:47:01;;;;;;;13.75;3.50;;;;;;;5.85;94.34;99766.69;4928851;29;20058;-45
2022/11/20 08:49:28;;;;;;;18.13;4.35;;;;;;;5.90;94.21;99774.72;4929711;29;20055;-46
2022/11/20 08:51:55;;;;;;;14.80;3.00;;;;;;;5.95;93.98;99771.75;4930000;29;20670;-45
2022/11/20 08:54:22;;;;;;;17.48;3.70;;;;;;;5.99;93.81;99778.97;4927798;29;20413;-45
2022/11/20 08:56:49;;;;;;;17.77;3.53;;;;;;;6.03;93.85;99779.13;4945534;29;20054;-48
2022/11/20 08:59:16;;;;;;;15.40;2.30;;;;;;;6.07;93.62;99775.34;4931539;29;20052;-45
2022/11/20 09:02:02;;;;;;;16.35;2.65;;;;;;;6.11;93.26;99761.75;4931178;29;20060;-45
2022/11/20 09:04:29;;;;;;;20.35;2.72;;;;;;;6.16;93.28;99750.53;4931853;29;20067;-45
2022/11/20 09:06:56;;;;;;;13.00;2.58;;;;;;;6.17;93.05;99746.63;4931521;29;20044;-45
2022/11/20 09:09:23;;;;;;;13.73;2.97;;;;;;;6.18;92.91;99731.75;4931658;29;20059;-44
2022/11/20 09:11:50;;;;;;;16.30;2.88;;;;;;;6.20;92.66;99740.44;4914318;29;20051;-43
2022/11/20 09:14:17;;;;;;;10.50;2.70;;;;;;;6.21;92.51;99730.25;4930454;29;20039;-46
2022/11/20 09:16:46;;;;;;;11.90;2.88;;;;;;;6.22;92.30;99726.38;4908084;29;20144;-46
2022/11/20 09:19:13;;;;;;;9.02;2.92;;;;;;;6.22;92.18;99718.94;4928747;29;20161;-46
2022/11/20 09:22:00;;;;;;;15.18;2.08;;;;;;;6.24;92.06;99730.41;4929689;29;20055;-45
2022/11/20 09:24:27;;;;;;;9.02;1.90;;;;;;;6.25;91.78;99720.97;4931702;29;20051;-44
2022/11/20 09:26:54;;;;;;;6.85;1.55;;;;;;;6.26;91.84;99717.09;4931506;29;20058;-50
2022/11/20 09:29:21;;;;;;;7.75;1.40;;;;;;;6.26;91.24;99700.63;4928220;29;20103;-44
2022/11/20 09:31:49;;;;;;;8.25;2.25;;;;;;;6.28;91.40;99701.06;4922862;29;20075;-44
2022/11/20 09:34:16;;;;;;;7.97;1.45;;;;;;;6.28;91.45;99706.56;4930688;29;20143;-44
2022/11/20 09:36:42;;;;;;;12.82;2.25;;;;;;;6.28;91.04;99687.31;4929553;29;20050;-44
2022/11/20 09:39:09;;;;;;;10.88;2.60;;;;;;;6.31;90.89;99686.66;4930954;29;20138;-44
2022/11/20 09:41:45;;;;;;;8.55;2.65;;;;;;;6.33;90.78;99683.56;4930614;29;20099;-44
2022/11/20 09:44:44;;;;;;;7.63;1.70;;;;;;;6.35;90.77;99686.78;4930389;29;20146;-43
2022/11/20 09:47:16;;;;;;;3.92;1.40;;;;;;;6.38;90.53;99681.38;4917909;29;20063;-44
2022/11/20 09:50:21;;;;;;;9.88;1.85;;;;;;;6.43;90.45;99683.91;4928593;29;20103;-44
2022/11/20 09:53:12;;;;;;;8.88;2.30;;;;;;;6.50;90.32;99684.13;4929890;29;20071;-47
2022/11/20 09:55:39;;;;;;;10.23;1.80;;;;;;;6.55;90.28;99675.66;4930298;29;20095;-45
2022/11/20 09:58:12;;;;;;;10.10;1.58;;;;;;;6.59;90.04;99678.53;4914415;29;20422;-46
2022/11/20 10:00:40;;;;;;;7.45;1.17;;;;;;;6.63;89.91;99688.50;4929032;29;20047;-43
2022/11/20 10:03:12;;;;;;;6.72;1.08;;;;;;;6.67;89.62;99683.88;4931537;29;20052;-44
2022/11/20 10:05:46;;;;;;;7.13;1.20;;;;;;;6.71;89.35;99678.50;4930268;29;20047;-47
2022/11/20 10:08:20;;;;;;;7.97;1.50;;;;;;;6.73;89.51;99685.25;4928212;29;20486;-47
2022/11/20 10:11:03;;;;;;;3.83;1.05;;;;;;;6.76;89.08;99692.03;4930053;29;20048;-47
2022/11/20 10:13:47;;;;;;;11.93;3.58;;;;;;;6.77;88.82;99696.38;4928601;29;20050;-44
2022/11/20 10:16:40;;;;;;;13.88;1.80;;;;;;;6.79;88.85;99718.03;4928714;29;20450;-47
2022/11/20 10:19:49;;;;;;;5.82;1.45;;;;;;;6.79;88.71;99715.28;4927668;29;20106;-44
2022/11/20 10:22:37;;;;;;;4.68;0.82;;;;;;;6.79;88.62;99707.03;4907394;29;20115;-45
2022/11/20 10:25:18;;;;;;;3.60;1.00;;;;;;;6.79;88.54;99702.34;4929869;29;20040;-43
2022/11/20 10:27:48;;;;;;;7.80;1.02;;;;;;;6.78;88.56;99711.72;4922507;29;20054;-45
2022/11/20 10:30:18;;;;;;;4.45;0.90;;;;;;;6.79;88.42;99737.28;4927966;29;20126;-51
2022/11/20 10:33:04;;;;;;;5.10;1.45;;;;;;;6.80;88.26;99725.16;4926469;29;20437;-45
2022/11/20 10:35:44;;;;;;;6.88;1.40;;;;;;;6.82;88.28;99722.84;4923131;29;20086;-44
2022/11/20 10:38:39;;;;;;;9.73;1.80;;;;;;;6.81;88.11;99721.25;4925735;29;20061;-43
2022/11/20 10:41:24;;;;;;;13.38;1.75;;;;;;;6.80;88.04;99741.66;4926742;29;20047;-44
2022/11/20 10:44:01;;;;;;;4.13;0.98;;;;;;;6.78;87.95;99743.97;4912175;29;20051;-44
2022/11/20 10:46:37;;;;;;;6.93;1.17;;;;;;;6.77;88.08;99742.34;4933378;29;20134;-44
2022/11/20 10:49:11;;;;;;;4.78;1.77;;;;;;;6.77;88.21;99758.84;4933685;29;20075;-44
2022/11/20 10:51:57;;;;;;;9.25;1.48;;;;;;;6.79;88.22;99757.34;4932790;29;20048;-44
2022/11/20 10:54:41;;;;;;;5.05;1.20;;;;;;;6.82;88.32;99753.13;4932881;29;20391;-44
2022/11/20 10:57:24;;;;;;;5.78;1.13;;;;;;;6.86;87.99;99749.31;4933151;29;20058;-45
2022/11/20 10:59:51;;;;;;;2.72;0.68;;;;;;;6.89;88.16;99767.09;4932954;29;20047;-45
2022/11/20 11:02:24;;;;;;;5.53;1.88;;;;;;;6.92;87.88;99760.91;4930738;29;20142;-45
2022/11/20 11:04:52;;;;;;;2.78;0.50;;;;;;;6.95;87.91;99765.72;4933234;29;20110;-44
2022/11/20 11:07:36;;;;;;;5.40;0.50;;;;;;;7.02;87.57;99765.94;4933146;29;20066;-44
2022/11/20 11:10:41;;;;;;;2.08;0.70;;;;;;;7.07;87.59;99773.97;4933093;29;20438;-44
2022/11/20 11:13:19;;;;;;;1.10;0.40;;;;;;;7.11;87.49;99788.66;4932949;29;20626;-45
2022/11/20 11:15:46;;;;;;;3.97;0.88;;;;;;;7.12;87.58;99782.00;4933086;29;20043;-47
2022/11/20 11:18:27;;;;;;;2.00;1.45;;;;;;;7.14;87.38;99790.72;4932720;29;20052;-44
2022/11/20 11:20:55;;;;;;;3.05;0.65;;;;;;;7.12;87.45;99798.53;4931875;29;20056;-44
2022/11/20 11:23:36;;;;;;;5.80;0.93;;;;;;;7.11;87.29;99800.47;4932531;29;20405;-44
2022/11/20 11:26:06;;;;;;;1.75;0.52;;;;;;;7.09;87.09;99804.72;4932531;29;20059;-47
2022/11/20 11:28:33;;;;;;;2.00;0.60;;;;;;;7.06;87.06;99805.38;4909541;29;20115;-48
2022/11/20 11:31:00;;;;;;;1.00;0.30;;;;;;;7.00;86.93;99796.56;4927097;29;20069;-48
2022/11/20 11:33:28;;;;;;;1.13;0.40;;;;;;;7.07;87.31;99801.50;4932417;29;20056;-44
2022/11/20 11:35:59;;;;;;;3.47;1.17;;;;;;;7.15;87.33;99790.34;4932409;29;20122;-44
2022/11/20 11:38:31;;;;;;;3.47;0.85;;;;;;;7.15;86.58;99793.09;4932183;29;20584;-44
2022/11/20 11:40:58;;;;;;;2.15;0.30;;;;;;;7.11;86.54;99788.66;4932467;29;20656;-44
2022/11/20 11:46:31;;;;;;;0.95;0.10;;;;;;;6.99;86.42;99794.94;4932275;29;20055;-44
2022/11/20 11:49:18;;;;;;;2.35;0.90;;;;;;;6.97;86.46;99785.44;4931535;29;20054;-44
2022/11/20 11:51:56;;;;;;;1.30;0.17;;;;;;;6.94;86.19;99791.63;4931517;29;20052;-51
2022/11/20 11:54:28;;;;;;;0.20;0.20;;;;;;;6.90;86.31;99790.72;4931745;29;20138;-46
2022/11/20 11:56:57;;;;;;;;;;;;;;;6.89;86.03;99797.34;4932630;29;20075;-46
2022/11/20 11:59:50;;;;;;;0.80;0.30;;;;;;;6.88;86.15;99802.06;4931933;29;19929;-44
2022/11/20 12:02:34;;;;;;;1.67;0.50;;;;;;;6.88;86.05;99793.81;4931732;29;20062;-51